createdAt,value
2023-03-17T00:00:50.786Z,4.15
2023-03-17T00:01:55.153Z,4.60
2023-03-17T00:03:00.733Z,4.55
2023-03-17T00:04:04.891Z,4.22
2023-03-17T00:05:28.513Z,4.45
2023-03-17T00:06:32.611Z,4.13
2023-03-17T00:07:36.888Z,4.03
2023-03-17T00:08:40.842Z,4.38
2023-03-17T00:09:44.776Z,4.97
2023-03-17T00:10:50.748Z,4.15
2023-03-17T00:11:56.126Z,5.53
2023-03-17T00:13:00.363Z,4.63
2023-03-17T00:14:05.604Z,4.50
2023-03-17T00:15:11.095Z,5.57
2023-03-17T00:16:21.441Z,4.97
2023-03-17T00:17:25.961Z,4.20
2023-03-17T00:18:31.022Z,5.20
2023-03-17T00:19:34.858Z,5.22
2023-03-17T00:20:39.077Z,3.95
2023-03-17T00:21:42.655Z,3.72
2023-03-17T00:22:46.186Z,3.97
2023-03-17T00:23:52.178Z,4.15
2023-03-17T00:24:55.784Z,4.57
2023-03-17T00:26:01.287Z,4.30
2023-03-17T00:27:12.737Z,4.05
2023-03-17T00:28:25.197Z,3.88
2023-03-17T00:29:32.412Z,3.95
2023-03-17T00:30:37.042Z,5.70
2023-03-17T00:31:40.715Z,3.50
2023-03-17T00:32:45.751Z,3.88
2023-03-17T00:33:51.815Z,3.40
2023-03-17T00:34:57.141Z,3.95
2023-03-17T00:36:02.485Z,4.85
2023-03-17T00:37:06.805Z,3.70
2023-03-17T00:38:17.471Z,3.40
2023-03-17T00:39:21.230Z,7.60
2023-03-17T00:40:27.165Z,5.35
2023-03-17T00:41:30.882Z,4.55
2023-03-17T00:42:37.447Z,4.53
2023-03-17T00:43:41.752Z,3.22
2023-03-17T00:44:46.380Z,3.80
2023-03-17T00:45:49.952Z,3.50
2023-03-17T00:46:55.083Z,3.42
2023-03-17T00:47:59.041Z,4.13
2023-03-17T00:49:21.646Z,4.45
2023-03-17T00:50:26.937Z,3.63
2023-03-17T00:51:32.194Z,4.72
2023-03-17T00:52:35.725Z,5.10
2023-03-17T00:53:39.748Z,5.13
2023-03-17T00:54:43.383Z,3.88
2023-03-17T00:55:47.330Z,4.25
2023-03-17T00:56:52.812Z,3.78
2023-03-17T00:57:57.204Z,3.65
2023-03-17T00:59:01.327Z,4.68
2023-03-17T01:00:05.671Z,3.55
2023-03-17T01:01:10.037Z,4.00
2023-03-17T01:02:14.377Z,4.85
2023-03-17T01:03:18.282Z,8.02
2023-03-17T01:04:22.395Z,8.82
2023-03-17T01:05:26.667Z,12.32
2023-03-17T01:06:30.139Z,4.03
2023-03-17T01:07:33.868Z,3.90
2023-03-17T01:08:37.866Z,2.92
2023-03-17T01:09:44.928Z,1.92
2023-03-17T01:10:49.302Z,2.70
2023-03-17T01:11:56.078Z,2.38
2023-03-17T01:13:00.620Z,2.30
2023-03-17T01:14:04.262Z,2.13
2023-03-17T01:15:08.498Z,1.50
2023-03-17T01:16:12.800Z,1.40
2023-03-17T01:17:17.600Z,1.58
2023-03-17T01:18:23.550Z,3.03
2023-03-17T01:19:27.224Z,11.43
2023-03-17T01:20:33.413Z,8.00
2023-03-17T01:21:37.155Z,7.22
2023-03-17T01:22:40.772Z,4.38
2023-03-17T01:23:44.610Z,2.60
2023-03-17T01:24:49.060Z,2.58
2023-03-17T01:25:52.512Z,2.65
2023-03-17T01:26:55.999Z,1.67
2023-03-17T01:27:59.837Z,2.08
2023-03-17T01:29:03.266Z,1.52
2023-03-17T01:30:07.967Z,1.40
2023-03-17T01:31:13.105Z,1.85
2023-03-17T01:32:16.838Z,2.92
2023-03-17T01:33:20.313Z,2.97
2023-03-17T01:34:24.955Z,4.78
2023-03-17T01:35:30.329Z,3.72
2023-03-17T01:36:35.125Z,1.88
2023-03-17T01:37:39.495Z,2.03
2023-03-17T01:38:43.445Z,1.95
2023-03-17T01:39:47.253Z,2.42
2023-03-17T01:40:52.143Z,1.67
2023-03-17T01:41:57.700Z,3.20
2023-03-17T01:43:11.228Z,2.15
2023-03-17T01:44:18.936Z,3.50
2023-03-17T01:46:00.399Z,3.25
2023-03-17T01:47:04.394Z,2.90
2023-03-17T01:48:08.372Z,4.10
2023-03-17T01:49:28.949Z,2.25
2023-03-17T01:50:32.586Z,2.25
2023-03-17T01:51:42.293Z,2.90
2023-03-17T01:52:46.616Z,2.58
2023-03-17T01:53:50.724Z,2.03
2023-03-17T01:55:04.452Z,2.22
2023-03-17T01:56:09.000Z,2.15
2023-03-17T01:57:15.133Z,3.55
2023-03-17T01:58:21.353Z,4.07
2023-03-17T01:59:28.020Z,2.20
2023-03-17T02:00:33.222Z,2.55
2023-03-17T02:01:39.505Z,4.00
2023-03-17T02:02:45.572Z,2.70
2023-03-17T02:03:49.597Z,2.72
2023-03-17T02:04:53.527Z,3.30
2023-03-17T02:05:57.724Z,2.42
2023-03-17T02:07:01.812Z,3.97
2023-03-17T02:08:13.915Z,5.25
2023-03-17T02:09:17.925Z,4.00
2023-03-17T02:10:22.374Z,2.83
2023-03-17T02:11:25.869Z,2.90
2023-03-17T02:12:29.934Z,3.85
2023-03-17T02:13:42.054Z,2.42
2023-03-17T02:14:46.014Z,3.10
2023-03-17T02:15:51.484Z,2.67
2023-03-17T02:17:00.078Z,2.58
2023-03-17T02:18:04.333Z,2.55
2023-03-17T02:19:09.238Z,2.53
2023-03-17T02:20:19.912Z,2.30
2023-03-17T02:22:06.646Z,2.53
2023-03-17T02:23:11.943Z,3.03
2023-03-17T02:24:27.951Z,2.50
2023-03-17T02:25:32.169Z,2.25
2023-03-17T02:26:36.005Z,1.83
2023-03-17T02:27:42.905Z,2.65
2023-03-17T02:28:46.687Z,2.70
2023-03-17T02:29:51.896Z,2.63
2023-03-17T02:30:57.971Z,2.20
2023-03-17T02:32:02.062Z,2.58
2023-03-17T02:33:07.192Z,2.13
2023-03-17T02:34:10.960Z,2.50
2023-03-17T02:35:14.539Z,2.15
2023-03-17T02:36:19.341Z,2.58
2023-03-17T02:37:23.853Z,2.20
2023-03-17T02:38:28.549Z,2.10
2023-03-17T02:39:32.647Z,2.63
2023-03-17T02:40:36.315Z,2.20
2023-03-17T02:41:40.693Z,2.72
2023-03-17T02:42:44.217Z,2.67
2023-03-17T02:43:48.202Z,2.58
2023-03-17T02:44:51.752Z,2.15
2023-03-17T02:45:55.647Z,3.10
2023-03-17T02:46:59.756Z,2.42
2023-03-17T02:48:03.321Z,2.60
2023-03-17T02:49:06.912Z,2.58
2023-03-17T02:50:11.388Z,2.40
2023-03-17T02:51:17.319Z,2.75
2023-03-17T02:52:21.355Z,4.95
2023-03-17T02:53:25.284Z,3.53
2023-03-17T02:54:29.166Z,4.43
2023-03-17T02:55:32.746Z,3.38
2023-03-17T02:56:36.445Z,4.47
2023-03-17T02:57:39.879Z,4.10
2023-03-17T02:58:43.331Z,4.45
2023-03-17T02:59:47.330Z,2.72
2023-03-17T03:00:51.205Z,3.13
2023-03-17T03:01:56.791Z,3.28
2023-03-17T03:03:01.867Z,2.95
2023-03-17T03:04:08.029Z,3.53
2023-03-17T03:05:12.400Z,4.78
2023-03-17T03:06:16.482Z,2.80
2023-03-17T03:07:20.236Z,4.55
2023-03-17T03:08:24.225Z,4.65
2023-03-17T03:09:28.248Z,3.08
2023-03-17T03:10:32.561Z,5.07
2023-03-17T03:11:37.167Z,5.60
2023-03-17T03:12:45.972Z,6.40
2023-03-17T03:13:50.013Z,6.50
2023-03-17T03:14:54.134Z,6.50
2023-03-17T03:15:58.454Z,5.43
2023-03-17T03:17:02.615Z,3.63
2023-03-17T03:18:07.009Z,4.32
2023-03-17T03:19:10.753Z,4.90
2023-03-17T03:20:15.108Z,5.05
2023-03-17T03:21:19.456Z,4.65
2023-03-17T03:22:23.351Z,4.10
2023-03-17T03:23:27.401Z,4.25
2023-03-17T03:24:33.015Z,3.42
2023-03-17T03:25:38.626Z,3.85
2023-03-17T03:26:42.626Z,4.88
2023-03-17T03:27:46.396Z,5.45
2023-03-17T03:28:49.996Z,5.00
2023-03-17T03:29:53.926Z,5.60
2023-03-17T03:30:57.746Z,5.95
2023-03-17T03:32:01.319Z,4.93
2023-03-17T03:33:05.397Z,6.13
2023-03-17T03:34:09.179Z,4.65
2023-03-17T03:35:12.677Z,4.97
2023-03-17T03:36:16.208Z,4.00
2023-03-17T03:37:20.215Z,3.88
2023-03-17T03:38:24.093Z,4.25
2023-03-17T03:39:27.691Z,3.55
2023-03-17T03:40:31.758Z,4.18
2023-03-17T03:41:35.759Z,3.40
2023-03-17T03:42:39.613Z,3.25
2023-03-17T03:43:43.615Z,2.85
2023-03-17T03:44:47.658Z,3.00
2023-03-17T03:45:51.820Z,3.05
2023-03-17T03:46:55.745Z,3.20
2023-03-17T03:47:59.773Z,2.47
2023-03-17T03:49:03.744Z,3.28
2023-03-17T03:50:08.024Z,2.13
2023-03-17T03:51:12.096Z,2.63
2023-03-17T03:52:16.161Z,2.17
2023-03-17T03:53:19.605Z,2.97
2023-03-17T03:54:23.615Z,2.53
2023-03-17T03:55:27.585Z,3.38
2023-03-17T03:56:31.574Z,2.60
2023-03-17T03:57:35.803Z,3.22
2023-03-17T03:58:40.016Z,2.35
2023-03-17T03:59:43.871Z,3.75
2023-03-17T04:00:48.082Z,3.22
2023-03-17T04:01:52.063Z,3.70
2023-03-17T04:02:55.828Z,2.40
2023-03-17T04:03:59.702Z,3.85
2023-03-17T04:05:03.734Z,3.38
2023-03-17T04:06:07.593Z,3.83
2023-03-17T04:07:11.522Z,3.13
2023-03-17T04:08:15.380Z,3.63
2023-03-17T04:09:19.326Z,3.30
2023-03-17T04:10:23.786Z,3.00
2023-03-17T04:11:27.786Z,3.45
2023-03-17T04:12:31.869Z,3.47
2023-03-17T04:13:36.260Z,3.55
2023-03-17T04:14:40.394Z,3.50
2023-03-17T04:15:43.911Z,3.40
2023-03-17T04:16:47.822Z,3.05
2023-03-17T04:17:51.565Z,3.88
2023-03-17T04:18:55.418Z,3.63
2023-03-17T04:19:59.453Z,3.30
2023-03-17T04:21:03.159Z,2.97
2023-03-17T04:22:07.999Z,2.92
2023-03-17T04:23:11.509Z,3.25
2023-03-17T04:24:15.797Z,3.28
2023-03-17T04:25:19.421Z,2.88
2023-03-17T04:26:24.499Z,3.22
2023-03-17T04:27:29.447Z,3.20
2023-03-17T04:28:33.007Z,3.45
2023-03-17T04:29:36.685Z,3.25
2023-03-17T04:30:40.592Z,3.30
2023-03-17T04:31:44.398Z,3.60
2023-03-17T04:32:48.491Z,3.25
2023-03-17T04:33:52.808Z,2.85
2023-03-17T04:34:56.634Z,3.20
2023-03-17T04:36:00.337Z,3.30
2023-03-17T04:37:03.882Z,3.47
2023-03-17T04:38:07.832Z,4.15
2023-03-17T04:39:11.531Z,3.35
2023-03-17T04:40:15.530Z,4.07
2023-03-17T04:41:19.426Z,4.05
2023-03-17T04:42:22.980Z,4.00
2023-03-17T04:43:27.699Z,4.18
2023-03-17T04:44:31.439Z,3.35
2023-03-17T04:45:35.003Z,3.50
2023-03-17T04:46:38.858Z,3.90
2023-03-17T04:47:43.060Z,3.70
2023-03-17T04:48:47.319Z,3.80
2023-03-17T04:49:51.700Z,3.58
2023-03-17T04:50:55.656Z,3.08
2023-03-17T04:51:59.252Z,3.90
2023-03-17T04:53:02.710Z,2.97
2023-03-17T04:54:07.736Z,3.45
2023-03-17T04:55:12.935Z,3.78
2023-03-17T04:56:16.668Z,3.33
2023-03-17T04:57:20.601Z,4.00
2023-03-17T04:58:30.779Z,4.95
2023-03-17T04:59:34.435Z,4.40
2023-03-17T05:00:39.907Z,3.28
2023-03-17T05:01:43.525Z,3.47
2023-03-17T05:02:47.300Z,3.40
2023-03-17T05:03:51.250Z,3.88
2023-03-17T05:04:55.355Z,3.53
2023-03-17T05:05:59.352Z,3.85
2023-03-17T05:07:03.359Z,3.58
2023-03-17T05:08:07.403Z,3.42
2023-03-17T05:09:11.636Z,3.28
2023-03-17T05:10:15.770Z,3.10
2023-03-17T05:11:19.416Z,3.33
2023-03-17T05:12:23.239Z,3.72
2023-03-17T05:13:26.989Z,3.45
2023-03-17T05:14:30.449Z,3.97
2023-03-17T05:15:34.130Z,3.10
2023-03-17T05:16:38.131Z,3.13
2023-03-17T05:17:41.672Z,2.97
2023-03-17T05:18:45.336Z,3.05
2023-03-17T05:19:48.958Z,4.25
2023-03-17T05:20:52.571Z,3.35
2023-03-17T05:21:57.050Z,3.22
2023-03-17T05:23:00.753Z,3.58
2023-03-17T05:24:04.246Z,3.70
2023-03-17T05:25:07.948Z,3.42
2023-03-17T05:26:11.962Z,2.75
2023-03-17T05:27:16.122Z,2.97
2023-03-17T05:28:21.397Z,9.65
2023-03-17T05:29:25.224Z,14.40
2023-03-17T05:30:28.832Z,18.00
2023-03-17T05:31:33.264Z,20.00
2023-03-17T05:32:37.579Z,18.00
2023-03-17T05:33:41.085Z,10.02
2023-03-17T05:34:46.044Z,8.18
2023-03-17T05:35:50.078Z,4.03
2023-03-17T05:36:54.182Z,4.13
2023-03-17T05:37:58.091Z,3.08
2023-03-17T05:39:02.076Z,3.25
2023-03-17T05:40:05.978Z,3.00
2023-03-17T05:41:11.123Z,3.50
2023-03-17T05:42:14.604Z,3.15
2023-03-17T05:43:18.403Z,3.78
2023-03-17T05:44:22.622Z,3.05
2023-03-17T05:45:26.557Z,3.42
2023-03-17T05:46:30.768Z,2.70
2023-03-17T05:47:34.886Z,3.38
2023-03-17T05:48:38.456Z,3.33
2023-03-17T05:49:42.702Z,3.08
2023-03-17T05:50:46.502Z,3.25
2023-03-17T05:51:50.403Z,3.40
2023-03-17T05:52:54.487Z,3.45
2023-03-17T05:53:58.491Z,3.97
2023-03-17T05:55:02.264Z,3.33
2023-03-17T05:56:07.068Z,3.40
2023-03-17T05:57:10.989Z,3.28
2023-03-17T05:58:16.259Z,4.13
2023-03-17T05:59:20.130Z,3.63
2023-03-17T06:00:24.614Z,3.63
2023-03-17T06:01:28.741Z,3.67
2023-03-17T06:02:32.740Z,3.50
2023-03-17T06:03:39.537Z,2.92
2023-03-17T06:04:44.114Z,2.85
2023-03-17T06:05:47.696Z,3.45
2023-03-17T06:06:51.602Z,3.88
2023-03-17T06:07:56.621Z,3.55
2023-03-17T06:09:00.721Z,3.35
2023-03-17T06:10:04.772Z,3.33
2023-03-17T06:11:08.764Z,5.13
2023-03-17T06:12:12.280Z,7.10
2023-03-17T06:13:16.435Z,6.15
2023-03-17T06:14:20.217Z,8.55
2023-03-17T06:15:24.094Z,10.02
2023-03-17T06:16:31.418Z,7.80
2023-03-17T06:17:35.627Z,11.57
2023-03-17T06:18:39.303Z,14.30
2023-03-17T06:19:43.344Z,12.02
2023-03-17T06:20:47.460Z,8.93
2023-03-17T06:21:51.040Z,8.43
2023-03-17T06:23:03.815Z,6.65
2023-03-17T06:24:09.141Z,5.40
2023-03-17T06:25:12.958Z,4.82
2023-03-17T06:26:16.659Z,3.38
2023-03-17T06:27:20.582Z,4.10
2023-03-17T06:28:24.948Z,8.85
2023-03-17T06:29:30.160Z,5.32
2023-03-17T06:30:34.387Z,4.43
2023-03-17T06:31:38.284Z,3.45
2023-03-17T06:32:41.957Z,3.60
2023-03-17T06:33:45.580Z,5.05
2023-03-17T06:34:49.408Z,3.58
2023-03-17T06:35:53.259Z,3.13
2023-03-17T06:36:57.504Z,2.60
2023-03-17T06:38:01.796Z,3.22
2023-03-17T06:39:05.798Z,2.58
2023-03-17T06:40:11.111Z,2.70
2023-03-17T06:41:15.869Z,2.50
2023-03-17T06:42:19.715Z,2.78
2023-03-17T06:43:25.303Z,3.08
2023-03-17T06:44:29.153Z,2.75
2023-03-17T06:45:35.373Z,2.47
2023-03-17T06:46:39.217Z,2.83
2023-03-17T06:47:43.183Z,2.90
2023-03-17T06:48:46.819Z,2.97
2023-03-17T06:49:50.699Z,2.72
2023-03-17T06:50:54.561Z,2.97
2023-03-17T06:51:59.013Z,2.75
2023-03-17T06:53:02.594Z,2.72
2023-03-17T06:54:07.082Z,2.58
2023-03-17T06:55:11.043Z,2.92
2023-03-17T06:56:28.826Z,2.85
2023-03-17T06:57:34.079Z,2.53
2023-03-17T06:58:38.006Z,3.50
2023-03-17T06:59:42.259Z,3.08
2023-03-17T07:00:49.434Z,2.72
2023-03-17T07:01:53.464Z,3.00
2023-03-17T07:02:57.381Z,2.17
2023-03-17T07:04:01.965Z,2.33
2023-03-17T07:05:06.852Z,2.47
2023-03-17T07:06:10.717Z,3.08
2023-03-17T07:07:14.654Z,2.90
2023-03-17T07:08:18.578Z,2.60
2023-03-17T07:09:23.055Z,2.90
2023-03-17T07:10:27.113Z,2.58
2023-03-17T07:11:31.981Z,2.78
2023-03-17T07:12:35.640Z,2.88
2023-03-17T07:13:40.432Z,3.15
2023-03-17T07:14:44.264Z,2.67
2023-03-17T07:15:49.103Z,2.97
2023-03-17T07:16:54.164Z,2.30
2023-03-17T07:17:57.851Z,2.80
2023-03-17T07:19:02.718Z,2.88
2023-03-17T07:20:07.011Z,2.50
2023-03-17T07:21:10.544Z,2.35
2023-03-17T07:22:14.336Z,2.80
2023-03-17T07:23:23.720Z,2.63
2023-03-17T07:24:27.995Z,2.72
2023-03-17T07:25:32.599Z,2.97
2023-03-17T07:26:36.496Z,2.88
2023-03-17T07:27:42.918Z,3.17
2023-03-17T07:28:47.503Z,2.58
2023-03-17T07:29:51.146Z,3.28
2023-03-17T07:30:55.089Z,2.53
2023-03-17T07:31:59.047Z,2.40
2023-03-17T07:33:03.162Z,2.78
2023-03-17T07:34:07.623Z,2.30
2023-03-17T07:35:11.330Z,3.60
2023-03-17T07:36:16.734Z,3.15
2023-03-17T07:37:22.274Z,3.08
2023-03-17T07:38:25.829Z,3.30
2023-03-17T07:39:29.791Z,3.25
2023-03-17T07:40:35.607Z,3.45
2023-03-17T07:41:39.972Z,3.38
2023-03-17T07:42:46.405Z,3.90
2023-03-17T07:43:50.678Z,2.72
2023-03-17T07:44:54.254Z,2.65
2023-03-17T07:45:58.904Z,3.60
2023-03-17T07:47:04.408Z,2.67
2023-03-17T07:48:08.914Z,3.33
2023-03-17T07:49:13.220Z,3.05
2023-03-17T07:50:16.969Z,3.33
2023-03-17T07:51:22.723Z,3.20
2023-03-17T07:52:27.917Z,3.70
2023-03-17T07:53:31.837Z,3.80
2023-03-17T07:54:36.637Z,3.83
2023-03-17T07:56:44.193Z,4.32
2023-03-17T07:57:47.837Z,4.07
2023-03-17T07:58:51.990Z,4.32
2023-03-17T07:59:56.922Z,4.03
2023-03-17T08:01:01.850Z,3.25
2023-03-17T08:02:05.658Z,3.53
2023-03-17T08:03:11.122Z,2.97
2023-03-17T08:04:16.033Z,3.10
2023-03-17T08:05:21.582Z,3.15
2023-03-17T08:06:25.866Z,2.60
2023-03-17T08:07:32.230Z,2.60
2023-03-17T08:08:37.880Z,2.67
2023-03-17T08:09:41.823Z,2.88
2023-03-17T08:10:45.543Z,3.20
2023-03-17T08:11:49.580Z,2.50
2023-03-17T08:12:54.857Z,3.08
2023-03-17T08:13:58.666Z,2.53
2023-03-17T08:15:02.480Z,2.35
2023-03-17T08:16:09.035Z,3.05
2023-03-17T08:17:14.427Z,2.53
2023-03-17T08:18:18.810Z,3.20
2023-03-17T08:19:23.162Z,2.58
2023-03-17T08:20:27.151Z,2.70
2023-03-17T08:21:31.275Z,3.13
2023-03-17T08:22:34.833Z,3.20
2023-03-17T08:23:38.499Z,3.50
2023-03-17T08:24:43.448Z,3.70
2023-03-17T08:25:48.205Z,3.78
2023-03-17T08:26:54.427Z,3.75
2023-03-17T08:27:59.091Z,2.97
2023-03-17T08:29:02.762Z,3.67
2023-03-17T08:30:07.398Z,3.65
2023-03-17T08:31:14.284Z,4.25
2023-03-17T08:32:18.840Z,3.70
2023-03-17T08:33:23.255Z,4.07
2023-03-17T08:34:27.872Z,4.18
2023-03-17T08:35:32.095Z,4.20
2023-03-17T08:36:38.035Z,3.95
2023-03-17T08:37:42.557Z,3.50
2023-03-17T08:38:46.755Z,3.28
2023-03-17T08:39:50.708Z,3.60
2023-03-17T08:40:54.703Z,3.30
2023-03-17T08:41:58.548Z,3.15
2023-03-17T08:43:02.613Z,3.60
2023-03-17T08:44:06.595Z,3.25
2023-03-17T08:45:11.697Z,3.75
2023-03-17T08:46:20.482Z,3.78
2023-03-17T08:47:24.384Z,3.53
2023-03-17T08:48:28.211Z,4.32
2023-03-17T08:49:35.505Z,4.00
2023-03-17T08:50:39.975Z,5.70
2023-03-17T08:51:44.551Z,6.18
2023-03-17T08:52:49.590Z,5.50
2023-03-17T08:53:54.462Z,4.15
2023-03-17T08:54:58.234Z,3.47
2023-03-17T08:56:02.327Z,4.63
2023-03-17T08:57:05.979Z,3.13
2023-03-17T08:58:10.020Z,3.20
2023-03-17T08:59:13.915Z,3.70
2023-03-17T09:00:21.279Z,3.67
2023-03-17T09:01:25.577Z,3.05
2023-03-17T09:02:29.710Z,3.78
2023-03-17T09:03:34.412Z,3.95
2023-03-17T09:04:40.066Z,3.75
2023-03-17T09:05:47.512Z,3.50
2023-03-17T09:07:03.265Z,3.95
2023-03-17T09:08:08.490Z,3.50
2023-03-17T09:09:13.202Z,4.07
2023-03-17T09:10:17.776Z,3.88
2023-03-17T09:11:22.425Z,4.18
2023-03-17T09:12:26.369Z,4.00
2023-03-17T09:13:30.492Z,3.72
2023-03-17T09:14:42.804Z,3.17
2023-03-17T09:15:47.297Z,3.55
2023-03-17T09:16:51.439Z,5.07
2023-03-17T09:17:55.589Z,5.90
2023-03-17T09:18:59.443Z,4.70
2023-03-17T09:20:05.184Z,4.03
2023-03-17T09:21:10.375Z,3.08
2023-03-17T09:22:15.016Z,3.33
2023-03-17T09:23:18.628Z,3.17
2023-03-17T09:24:22.187Z,3.17
2023-03-17T09:25:25.957Z,2.92
2023-03-17T09:26:29.891Z,3.58
2023-03-17T09:27:34.483Z,4.85
2023-03-17T09:28:39.095Z,3.58
2023-03-17T09:29:43.110Z,3.25
2023-03-17T09:30:47.257Z,4.20
2023-03-17T09:31:51.401Z,4.15
2023-03-17T09:32:55.709Z,5.28
2023-03-17T09:33:59.485Z,4.72
2023-03-17T09:35:04.512Z,3.95
2023-03-17T09:36:09.493Z,4.80
2023-03-17T09:37:13.359Z,5.28
2023-03-17T09:38:17.625Z,3.97
2023-03-17T09:39:24.017Z,3.78
2023-03-17T09:40:55.214Z,3.88
2023-03-17T09:42:25.651Z,3.85
2023-03-17T09:43:56.793Z,4.75
2023-03-17T09:45:21.704Z,4.10
2023-03-17T09:46:40.032Z,5.20
2023-03-17T09:48:10.806Z,5.72
2023-03-17T09:49:14.946Z,5.00
2023-03-17T09:50:26.851Z,3.63
2023-03-17T09:51:31.911Z,3.03
2023-03-17T09:52:35.505Z,2.47
2023-03-17T09:53:56.141Z,1.85
2023-03-17T09:54:59.902Z,2.30
2023-03-17T09:56:14.672Z,2.60
2023-03-17T09:57:39.226Z,2.83
2023-03-17T09:58:51.335Z,2.35
2023-03-17T10:00:08.788Z,2.90
2023-03-17T10:01:14.012Z,2.60
2023-03-17T10:02:23.214Z,2.50
2023-03-17T10:03:27.738Z,3.13
2023-03-17T10:04:31.671Z,3.10
2023-03-17T10:05:39.096Z,3.42
2023-03-17T10:06:47.753Z,3.42
2023-03-17T10:08:28.969Z,2.75
2023-03-17T10:10:15.765Z,3.28
2023-03-17T10:11:32.102Z,3.63
2023-03-17T10:13:09.353Z,3.15
2023-03-17T10:14:32.528Z,3.73
2023-03-17T10:15:51.456Z,2.80
2023-03-17T10:16:58.338Z,2.67
2023-03-17T10:18:03.016Z,2.80
2023-03-17T10:19:28.424Z,3.70
2023-03-17T10:20:33.998Z,3.78
2023-03-17T10:21:42.644Z,3.90
2023-03-17T10:22:59.885Z,3.53
2023-03-17T10:24:04.305Z,3.63
2023-03-17T10:25:32.337Z,4.10
2023-03-17T10:26:45.229Z,3.78
2023-03-17T10:27:58.578Z,3.33
2023-03-17T10:29:05.004Z,3.05
2023-03-17T10:30:17.000Z,3.45
2023-03-17T10:31:28.966Z,3.65
2023-03-17T10:32:33.659Z,4.03
2023-03-17T10:33:37.088Z,2.75
2023-03-17T10:34:42.374Z,3.80
2023-03-17T10:35:46.023Z,4.00
2023-03-17T10:36:52.358Z,3.55
2023-03-17T10:38:11.833Z,3.00
2023-03-17T10:39:22.705Z,2.70
2023-03-17T10:40:29.356Z,3.03
2023-03-17T10:41:35.323Z,2.70
2023-03-17T10:42:49.975Z,2.90
2023-03-17T10:43:54.238Z,3.00
2023-03-17T10:45:08.155Z,3.33
2023-03-17T10:46:24.143Z,2.90
2023-03-17T10:47:33.198Z,3.45
2023-03-17T10:48:39.339Z,2.95
2023-03-17T10:49:44.974Z,3.20
2023-03-17T10:50:49.634Z,3.42
2023-03-17T10:51:54.526Z,4.13
2023-03-17T10:53:33.328Z,3.60
2023-03-17T10:54:38.080Z,3.63
2023-03-17T10:55:43.458Z,3.90
2023-03-17T10:56:50.946Z,3.28
2023-03-17T10:58:19.575Z,4.07
2023-03-17T10:59:38.816Z,3.78
2023-03-17T11:01:01.232Z,3.75
2023-03-17T11:02:18.471Z,3.50
2023-03-17T11:03:27.733Z,3.20
2023-03-17T11:04:33.821Z,3.05
2023-03-17T11:05:39.060Z,3.08
2023-03-17T11:06:45.325Z,2.92
2023-03-17T11:07:49.351Z,3.38
2023-03-17T11:08:55.702Z,2.92
2023-03-17T11:10:04.361Z,3.15
2023-03-17T11:11:11.061Z,2.95
2023-03-17T11:12:26.141Z,3.10
2023-03-17T11:13:31.049Z,2.20
2023-03-17T11:14:34.692Z,3.63
2023-03-17T11:15:55.426Z,3.83
2023-03-17T11:17:00.864Z,4.32
2023-03-17T11:18:20.101Z,3.00
2023-03-17T11:19:44.681Z,3.10
2023-03-17T11:20:51.987Z,3.67
2023-03-17T11:22:01.139Z,2.92
2023-03-17T11:23:09.645Z,2.63
2023-03-17T11:24:35.652Z,2.67
2023-03-17T11:25:42.971Z,2.72
2023-03-17T11:27:04.353Z,3.08
2023-03-17T11:28:24.263Z,3.08
2023-03-17T11:29:53.789Z,4.60
2023-03-17T11:31:42.970Z,2.50
2023-03-17T11:33:35.038Z,3.88
2023-03-17T11:34:53.024Z,2.90
2023-03-17T11:36:04.034Z,3.63
2023-03-17T11:37:18.982Z,3.40
2023-03-17T11:38:25.240Z,2.85
2023-03-17T11:39:33.650Z,3.70
2023-03-17T11:41:05.855Z,3.22
2023-03-17T11:42:30.883Z,3.03
2023-03-17T11:44:08.834Z,5.55
2023-03-17T11:45:23.721Z,3.13
2023-03-17T11:47:02.641Z,2.88
2023-03-17T11:48:14.751Z,3.40
2023-03-17T11:49:25.624Z,2.63
2023-03-17T11:50:34.851Z,1.60
2023-03-17T11:52:00.358Z,1.20
2023-03-17T11:53:34.738Z,1.25
2023-03-17T11:54:53.491Z,1.10
2023-03-17T11:56:06.127Z,0.90
2023-03-17T11:57:16.358Z,1.50
2023-03-17T12:00:17.494Z,1.30
2023-03-17T12:01:25.189Z,1.35
2023-03-17T12:02:40.607Z,1.58
2023-03-17T12:03:49.855Z,1.77
2023-03-17T12:05:06.084Z,1.80
2023-03-17T12:06:16.385Z,2.50
2023-03-17T12:08:46.501Z,2.40
2023-03-17T12:10:21.627Z,2.50
2023-03-17T12:11:29.944Z,1.55
2023-03-17T12:12:38.657Z,2.85
2023-03-17T12:13:43.642Z,1.63
2023-03-17T12:14:49.296Z,2.25
2023-03-17T12:15:55.541Z,2.35
2023-03-17T12:17:06.197Z,2.35
2023-03-17T12:18:18.944Z,2.95
2023-03-17T12:19:49.704Z,2.75
2023-03-17T12:21:15.556Z,2.03
2023-03-17T12:22:39.779Z,1.77
2023-03-17T12:23:46.583Z,2.10
2023-03-17T12:25:06.342Z,1.90
2023-03-17T12:26:14.963Z,2.38
2023-03-17T12:27:27.738Z,2.42
2023-03-17T12:29:07.296Z,2.38
2023-03-17T12:30:17.680Z,3.00
2023-03-17T12:31:24.343Z,2.50
2023-03-17T12:32:50.678Z,2.63
2023-03-17T12:34:22.607Z,3.00
2023-03-17T12:35:33.645Z,3.08
2023-03-17T12:36:40.272Z,2.90
2023-03-17T12:37:43.785Z,3.08
2023-03-17T12:38:55.430Z,2.72
2023-03-17T12:40:03.334Z,2.60
2023-03-17T12:41:11.702Z,3.00
2023-03-17T12:42:28.084Z,2.88
2023-03-17T12:43:38.068Z,3.53
2023-03-17T12:45:12.706Z,3.00
2023-03-17T12:46:20.273Z,3.08
2023-03-17T12:47:45.482Z,3.33
2023-03-17T12:48:58.971Z,2.92
2023-03-17T12:50:24.806Z,3.15
2023-03-17T12:51:40.967Z,3.47
2023-03-17T12:53:23.434Z,2.90
2023-03-17T12:54:37.518Z,2.58
2023-03-17T12:55:42.716Z,2.95
2023-03-17T12:56:47.164Z,3.10
2023-03-17T12:58:01.305Z,2.90
2023-03-17T12:59:12.370Z,2.58
2023-03-17T13:00:26.335Z,3.22
2023-03-17T13:01:47.005Z,2.13
2023-03-17T13:02:53.143Z,1.90
2023-03-17T13:04:14.647Z,2.03
2023-03-17T13:05:23.812Z,1.77
2023-03-17T13:06:36.920Z,2.05
2023-03-17T13:08:00.433Z,2.20
2023-03-17T13:09:39.059Z,2.08
2023-03-17T13:10:49.302Z,2.03
2023-03-17T13:11:53.397Z,2.08
2023-03-17T13:13:11.648Z,2.08
2023-03-17T13:14:36.234Z,2.05
2023-03-17T13:15:40.312Z,2.03
2023-03-17T13:16:47.371Z,1.98
2023-03-17T13:17:51.633Z,2.15
2023-03-17T13:19:15.349Z,2.65
2023-03-17T13:20:20.178Z,2.58
2023-03-17T13:21:24.634Z,2.15
2023-03-17T13:22:39.313Z,2.13
2023-03-17T13:23:46.950Z,2.33
2023-03-17T13:24:52.644Z,2.03
2023-03-17T13:25:56.727Z,2.38
2023-03-17T13:27:03.257Z,2.20
2023-03-17T13:28:13.020Z,2.05
2023-03-17T13:29:48.304Z,2.22
2023-03-17T13:30:57.589Z,1.95
2023-03-17T13:32:20.079Z,2.08
2023-03-17T13:33:28.282Z,1.98
2023-03-17T13:34:32.710Z,1.90
2023-03-17T13:36:01.049Z,2.22
2023-03-17T13:37:45.836Z,1.88
2023-03-17T13:39:18.669Z,1.48
2023-03-17T13:40:27.044Z,2.00
2023-03-17T13:41:41.377Z,2.17
2023-03-17T13:43:38.196Z,2.53
2023-03-17T13:44:57.285Z,2.10
2023-03-17T13:46:25.922Z,2.40
2023-03-17T13:47:37.240Z,2.85
2023-03-17T13:48:41.419Z,2.55
2023-03-17T13:49:48.921Z,2.60
2023-03-17T13:50:59.422Z,3.05
2023-03-17T13:52:13.674Z,2.08
2023-03-17T13:53:17.787Z,2.67
2023-03-17T13:54:35.403Z,2.55
2023-03-17T13:55:41.683Z,2.78
2023-03-17T13:56:46.273Z,3.05
2023-03-17T13:58:16.026Z,3.60
2023-03-17T13:59:21.175Z,2.83
2023-03-17T14:00:27.623Z,2.50
2023-03-17T14:01:39.789Z,3.13
2023-03-17T14:02:43.524Z,2.13
2023-03-17T14:03:52.036Z,2.22
2023-03-17T14:05:21.816Z,1.92
2023-03-17T14:06:31.754Z,1.95
2023-03-17T14:07:59.948Z,2.10
2023-03-17T14:09:14.447Z,2.22
2023-03-17T14:10:23.330Z,2.17
2023-03-17T14:11:35.877Z,1.70
2023-03-17T14:12:45.779Z,1.90
2023-03-17T14:13:56.657Z,2.20
2023-03-17T14:15:07.956Z,1.98
2023-03-17T14:16:33.979Z,2.65
2023-03-17T14:17:42.532Z,1.98
2023-03-17T14:18:54.758Z,2.33
2023-03-17T14:20:25.493Z,2.45
2023-03-17T14:22:45.223Z,2.25
2023-03-17T14:23:56.661Z,2.10
2023-03-17T14:25:02.202Z,1.85
2023-03-17T14:26:07.656Z,2.00
2023-03-17T14:27:13.590Z,2.50
2023-03-17T14:28:24.673Z,2.05
2023-03-17T14:29:31.165Z,3.17
2023-03-17T14:30:35.366Z,2.53
2023-03-17T14:31:38.915Z,2.50
2023-03-17T14:32:46.426Z,2.75
2023-03-17T14:33:52.254Z,2.72
2023-03-17T14:35:00.169Z,2.30
2023-03-17T14:36:04.759Z,2.63
2023-03-17T14:37:11.362Z,2.40
2023-03-17T14:38:20.776Z,2.60
2023-03-17T14:39:25.815Z,2.30
2023-03-17T14:40:30.869Z,2.60
2023-03-17T14:41:35.507Z,2.40
2023-03-17T14:42:39.252Z,1.92
2023-03-17T14:43:43.298Z,2.47
2023-03-17T14:44:46.772Z,1.98
2023-03-17T14:46:01.987Z,1.83
2023-03-17T14:47:07.391Z,2.50
2023-03-17T14:48:14.312Z,2.38
2023-03-17T14:49:19.401Z,1.92
2023-03-17T14:50:31.474Z,2.00
2023-03-17T14:51:40.477Z,3.00
2023-03-17T14:52:44.423Z,2.60
2023-03-17T14:53:47.954Z,2.03
2023-03-17T14:54:53.124Z,1.45
2023-03-17T14:55:57.535Z,2.20
2023-03-17T14:57:04.168Z,2.95
2023-03-17T14:58:18.312Z,1.95
2023-03-17T14:59:59.492Z,2.30
2023-03-17T15:01:04.487Z,2.22
2023-03-17T15:02:26.097Z,1.90
2023-03-17T15:03:31.202Z,2.55
2023-03-17T15:04:35.463Z,2.00
2023-03-17T15:05:40.383Z,2.47
2023-03-17T15:07:00.195Z,2.10
2023-03-17T15:08:04.738Z,1.98
2023-03-17T15:09:38.969Z,2.00